Portada
METAR-TAF:

METAR-TAF

Aeroports :

Kutaïsi, Geòrgia

latitud: 42-10-35N, longitud: 042-28-57E, altitud: 68 m

Observació

L'informe es va fer fa 33 minuts, a les 01:00 UTC
Vent 22 kt del Est amb ràfegues de 35 kt
Temperatura 9°C
Humitat 40%
Pressió 1014 hPa
Visibilitat 10 km o més
sense núvols per sota de 1500 mi sense presència de cumulonimbus.

METAR: UGKO 270100Z 09022G35KT CAVOK 09/M04 Q1014 NOSIG

Hora: 05:33 (01:33 UTC)

Pronòstic

L'informe es va fer fa 2 hores i 33 minuts, a les 23:00 UTC
Pronòstic vàlid del 27 a les 00 UTC al 27 a les 24 UTC
Vent 26 kt del Est amb ràfegues de 39 kt
Visibilitat 10 km o més
sense núvols per sota de 1500 mi sense presència de cumulonimbus.
Evolucionant progressivament
l' 27 a les 05 UTC al 27 a les 07 UTC
Vent 19 kt del Est amb ràfegues de 29 kt
Evolucionant progressivament
l' 27 a les 16 UTC al 27 a les 18 UTC
Vent 12 kt del Est

TAF: UGKO 262300Z 2700/2724 09026G39KT CAVOK TX20/2712Z TN08/2703Z BECMG 2705/2707 08019G29KT BECMG 2716/2718 09012KT

Observacions i pronòstics meteorològics de més de 4000 aeroports (METAR i TAF).

Les estacions disponibles són els punts grocs i vermells al mapa.

Posi el ratolí al punt desitjat per veure el nom de l'estació.

Feu clic per veure les observacions i els pronòstics meteorològics.

Per canviar el mapa: feu clic els botons verds amb una creu de color negre per apropar; al botó verd amb un guió per allunyar la imatge; o en les fletxes verdes per a mapes adjacents.


METAR-TAF: